Time;durP1;ratioP1;P1;durP2;ratioP2;P2;SDS_P1;SDS_P2;PMS_P1;PMS_P2;Temp;Humidity;BMP_temperature;BMP_pressure;BME280_temperature;BME280_humidity;BME280_pressure;Samples;Min_cycle;Max_cycle;Signal;HPM_P1;HPM_P2
2022/09/02 00:00:09;;;;;;;4.50;4.10;;;;;;;;;;5064805;28;20191;-76
2022/09/02 00:02:36;;;;;;;4.30;3.90;;;;;;;;;;5069448;28;20673;-75
2022/09/02 00:05:02;;;;;;;4.40;4.00;;;;;;;;;;5047946;28;20209;-76
2022/09/02 00:07:28;;;;;;;4.30;4.00;;;;;;;;;;5064044;28;20360;-75
2022/09/02 00:09:54;;;;;;;4.20;3.57;;;;;;;;;;5072588;28;20185;-75
2022/09/02 00:12:20;;;;;;;3.90;3.60;;;;;;;;;;5046866;28;20173;-75
2022/09/02 00:14:46;;;;;;;4.63;4.10;;;;;;;;;;5072886;28;20506;-75
2022/09/02 00:17:12;;;;;;;4.87;4.00;;;;;;;;;;5064926;28;20184;-75
2022/09/02 00:19:39;;;;;;;5.97;4.20;;;;;;;;;;5047840;28;20177;-76
2022/09/02 00:22:05;;;;;;;4.60;4.20;;;;;;;;;;5063980;28;20187;-76
2022/09/02 00:24:32;;;;;;;4.63;4.33;;;;;;;;;;5068121;28;20627;-76
2022/09/02 00:26:58;;;;;;;5.47;4.47;;;;;;;;;;5060905;28;20229;-75
2022/09/02 00:29:25;;;;;;;4.50;4.10;;;;;;;;;;5045266;28;20177;-75
2022/09/02 00:31:51;;;;;;;4.60;4.27;;;;;;;;;;5066016;28;20196;-75
2022/09/02 00:34:17;;;;;;;5.10;4.00;;;;;;;;;;5047652;28;20285;-76
2022/09/02 00:36:44;;;;;;;4.23;3.83;;;;;;;;;;5062762;28;20229;-76
2022/09/02 00:39:10;;;;;;;4.10;3.80;;;;;;;;;;5065344;28;20264;-75
2022/09/02 00:41:38;;;;;;;4.60;4.17;;;;;;;;;;5056201;28;20217;-75
2022/09/02 00:44:08;;;;;;;4.80;4.40;;;;;;;;;;5073402;28;20708;-76
2022/09/02 00:46:34;;;;;;;4.53;4.13;;;;;;;;;;5049489;28;20592;-76
2022/09/02 00:49:03;;;;;;;4.20;3.90;;;;;;;;;;5038813;28;20671;-78
2022/09/02 00:51:32;;;;;;;4.80;4.00;;;;;;;;;;5032582;28;20390;-75
2022/09/02 00:53:59;;;;;;;3.97;3.67;;;;;;;;;;5052800;28;20216;-75
2022/09/02 00:56:27;;;;;;;3.97;3.67;;;;;;;;;;5044290;28;20600;-75
2022/09/02 00:58:54;;;;;;;4.20;3.90;;;;;;;;;;5049285;28;20196;-76
2022/09/02 01:01:21;;;;;;;4.60;4.20;;;;;;;;;;5042186;28;20185;-76
2022/09/02 01:03:48;;;;;;;4.13;3.73;;;;;;;;;;5065263;28;20201;-76
2022/09/02 01:06:14;;;;;;;4.80;3.90;;;;;;;;;;5057050;28;20201;-76
2022/09/02 01:08:43;;;;;;;4.30;3.90;;;;;;;;;;5051240;28;20649;-76
2022/09/02 01:11:10;;;;;;;3.83;3.53;;;;;;;;;;5045911;28;20185;-76
2022/09/02 01:13:38;;;;;;;4.10;3.80;;;;;;;;;;5057462;28;20185;-76
2022/09/02 01:16:08;;;;;;;4.40;4.00;;;;;;;;;;5062464;28;20273;-76
2022/09/02 01:18:35;;;;;;;5.37;3.90;;;;;;;;;;5071644;28;20230;-75
2022/09/02 01:21:01;;;;;;;5.90;3.83;;;;;;;;;;5046703;28;20235;-76
2022/09/02 01:23:28;;;;;;;4.97;4.30;;;;;;;;;;5052981;28;20197;-76
2022/09/02 01:25:55;;;;;;;4.10;3.80;;;;;;;;;;5049036;28;20177;-76
2022/09/02 01:28:22;;;;;;;4.60;4.20;;;;;;;;;;5060039;28;20208;-76
2022/09/02 01:30:50;;;;;;;4.30;4.00;;;;;;;;;;5037911;28;20181;-76
2022/09/02 01:33:17;;;;;;;4.30;4.00;;;;;;;;;;5053940;28;20632;-75
2022/09/02 01:35:43;;;;;;;4.00;3.70;;;;;;;;;;5043736;28;20257;-75
2022/09/02 01:38:09;;;;;;;4.13;3.73;;;;;;;;;;5053361;28;20185;-75
2022/09/02 01:40:36;;;;;;;4.27;3.87;;;;;;;;;;5058593;28;20174;-76
2022/09/02 01:43:06;;;;;;;4.20;3.80;;;;;;;;;;5058867;28;20193;-76
2022/09/02 01:45:33;;;;;;;3.67;3.37;;;;;;;;;;5037192;28;20248;-76
2022/09/02 01:47:59;;;;;;;3.60;3.20;;;;;;;;;;5043897;28;20299;-76
2022/09/02 01:50:26;;;;;;;3.83;3.40;;;;;;;;;;5050911;28;20647;-76
2022/09/02 01:52:52;;;;;;;3.70;3.40;;;;;;;;;;5063377;28;20173;-76
2022/09/02 01:55:19;;;;;;;3.60;3.30;;;;;;;;;;5048127;28;20225;-76
2022/09/02 01:57:46;;;;;;;3.53;3.23;;;;;;;;;;5059320;28;20554;-76
2022/09/02 02:00:13;;;;;;;4.13;3.40;;;;;;;;;;5039356;28;20200;-76
2022/09/02 02:02:39;;;;;;;3.43;3.13;;;;;;;;;;5063018;28;20197;-76
2022/09/02 02:05:06;;;;;;;3.10;2.80;;;;;;;;;;5042635;28;20668;-76
2022/09/02 02:07:32;;;;;;;3.40;3.10;;;;;;;;;;5060872;28;20303;-76
2022/09/02 02:09:58;;;;;;;3.20;3.00;;;;;;;;;;5062290;28;20169;-76
2022/09/02 02:12:27;;;;;;;4.07;3.00;;;;;;;;;;5048819;28;20173;-76
2022/09/02 02:14:54;;;;;;;3.83;3.20;;;;;;;;;;5061720;28;20209;-76
2022/09/02 02:17:20;;;;;;;3.67;3.20;;;;;;;;;;5065244;28;20185;-76
2022/09/02 02:19:46;;;;;;;3.57;3.27;;;;;;;;;;5072018;28;20574;-76
2022/09/02 02:22:13;;;;;;;3.70;3.40;;;;;;;;;;5046200;28;20212;-76
2022/09/02 02:24:40;;;;;;;4.17;3.27;;;;;;;;;;5067211;28;20280;-76
2022/09/02 02:27:06;;;;;;;4.70;3.40;;;;;;;;;;5049624;28;20231;-76
2022/09/02 02:29:32;;;;;;;3.40;3.10;;;;;;;;;;5049770;28;20200;-76
2022/09/02 02:31:58;;;;;;;4.17;3.77;;;;;;;;;;5057300;28;20181;-76
2022/09/02 02:34:25;;;;;;;3.43;3.10;;;;;;;;;;5058013;28;20204;-76
2022/09/02 02:36:51;;;;;;;3.57;3.27;;;;;;;;;;5046842;28;20196;-76
2022/09/02 02:39:18;;;;;;;3.20;3.00;;;;;;;;;;5050677;28;20304;-76
2022/09/02 02:41:46;;;;;;;3.53;3.20;;;;;;;;;;5049173;28;20184;-76
2022/09/02 02:44:13;;;;;;;3.47;3.17;;;;;;;;;;5048948;28;20205;-76
2022/09/02 02:46:39;;;;;;;3.60;3.37;;;;;;;;;;5053518;28;20210;-76
2022/09/02 02:49:06;;;;;;;3.53;3.23;;;;;;;;;;5066057;28;20252;-76
2022/09/02 02:51:33;;;;;;;3.93;3.33;;;;;;;;;;5053972;28;20235;-76
2022/09/02 02:54:00;;;;;;;3.67;3.30;;;;;;;;;;5078466;28;20193;-76
2022/09/02 02:56:28;;;;;;;3.60;3.30;;;;;;;;;;5049793;28;20185;-76
2022/09/02 02:58:55;;;;;;;3.80;3.40;;;;;;;;;;5052482;28;20201;-76
2022/09/02 03:01:22;;;;;;;3.50;3.20;;;;;;;;;;5050414;28;20728;-76
2022/09/02 03:03:50;;;;;;;3.60;3.30;;;;;;;;;;5068985;28;20312;-76
2022/09/02 03:06:16;;;;;;;3.70;3.40;;;;;;;;;;5032606;28;20622;-76
2022/09/02 03:08:43;;;;;;;3.50;3.17;;;;;;;;;;5049926;28;20541;-76
2022/09/02 03:11:10;;;;;;;5.57;3.43;;;;;;;;;;5071499;28;20226;-76
2022/09/02 03:13:40;;;;;;;3.70;3.20;;;;;;;;;;5043392;28;20202;-76
2022/09/02 03:16:06;;;;;;;3.77;3.47;;;;;;;;;;5066318;28;20177;-76
2022/09/02 03:18:33;;;;;;;3.07;2.77;;;;;;;;;;5049727;28;20698;-76
2022/09/02 03:21:00;;;;;;;3.30;3.00;;;;;;;;;;5061961;28;20315;-76
2022/09/02 03:23:26;;;;;;;3.40;3.10;;;;;;;;;;5045021;28;20212;-76
2022/09/02 03:25:53;;;;;;;3.50;3.20;;;;;;;;;;5047322;28;20451;-76
2022/09/02 03:28:33;;;;;;;3.33;3.03;;;;;;;;;;5049952;28;20624;-76
2022/09/02 03:31:00;;;;;;;3.43;3.13;;;;;;;;;;5054490;28;20174;-76
2022/09/02 03:33:27;;;;;;;3.67;3.10;;;;;;;;;;5044173;28;20202;-76
2022/09/02 03:35:54;;;;;;;4.07;3.20;;;;;;;;;;5041510;28;20277;-75
2022/09/02 03:38:20;;;;;;;3.67;3.10;;;;;;;;;;5048914;28;20184;-75
2022/09/02 03:40:47;;;;;;;3.57;3.27;;;;;;;;;;5055506;28;20543;-75
2022/09/02 03:43:13;;;;;;;3.07;2.80;;;;;;;;;;5043489;28;20231;-75
2022/09/02 03:45:40;;;;;;;2.97;2.70;;;;;;;;;;5045413;28;20707;-76
2022/09/02 03:48:11;;;;;;;3.30;3.00;;;;;;;;;;5045892;28;20282;-76
2022/09/02 03:50:38;;;;;;;3.27;2.80;;;;;;;;;;5050749;28;20170;-75
2022/09/02 03:53:05;;;;;;;3.10;2.80;;;;;;;;;;5051886;28;20504;-76
2022/09/02 03:55:32;;;;;;;2.70;2.50;;;;;;;;;;5028606;28;20482;-76
2022/09/02 03:57:58;;;;;;;3.03;2.83;;;;;;;;;;5068166;28;20184;-75
2022/09/02 04:00:30;;;;;;;3.80;3.20;;;;;;;;;;5050933;28;20193;-76
2022/09/02 04:03:00;;;;;;;2.90;2.60;;;;;;;;;;5064862;28;20193;-76
2022/09/02 04:05:27;;;;;;;3.27;2.90;;;;;;;;;;5049114;28;20202;-75
2022/09/02 04:07:56;;;;;;;4.40;2.40;;;;;;;;;;5051681;28;20292;-75
2022/09/02 04:10:23;;;;;;;4.37;2.63;;;;;;;;;;5034061;28;20190;-76
2022/09/02 04:12:50;;;;;;;3.00;2.70;;;;;;;;;;5047298;28;20434;-76
2022/09/02 04:15:16;;;;;;;3.70;2.37;;;;;;;;;;5049369;28;20753;-75
2022/09/02 04:21:25;;;;;;;5.50;2.40;;;;;;;;;;5065179;28;20549;-75
2022/09/02 04:23:52;;;;;;;3.47;2.40;;;;;;;;;;5049932;28;20205;-75
2022/09/02 04:26:20;;;;;;;2.80;2.60;;;;;;;;;;5056148;28;20683;-75
2022/09/02 04:28:50;;;;;;;2.70;2.50;;;;;;;;;;5052991;28;20299;-76
2022/09/02 04:31:19;;;;;;;3.37;2.63;;;;;;;;;;5048338;28;20173;-75
2022/09/02 04:33:46;;;;;;;4.30;3.00;;;;;;;;;;5051870;28;20242;-75
2022/09/02 04:36:16;;;;;;;3.20;2.90;;;;;;;;;;5048042;28;20271;-76
2022/09/02 04:38:44;;;;;;;3.00;2.80;;;;;;;;;;5029199;28;20257;-76
2022/09/02 04:41:14;;;;;;;3.40;2.80;;;;;;;;;;5063094;28;20251;-75
2022/09/02 04:43:41;;;;;;;2.97;2.73;;;;;;;;;;5045740;28;20202;-75
2022/09/02 04:46:09;;;;;;;2.90;2.70;;;;;;;;;;5050474;28;20184;-77
2022/09/02 04:48:36;;;;;;;3.03;2.73;;;;;;;;;;5056111;28;20182;-76
2022/09/02 04:51:09;;;;;;;3.33;2.80;;;;;;;;;;5065067;28;20193;-76
2022/09/02 04:53:37;;;;;;;2.80;2.60;;;;;;;;;;5050012;28;20204;-76
2022/09/02 04:56:04;;;;;;;2.97;2.63;;;;;;;;;;5068375;28;20514;-75
2022/09/02 04:58:32;;;;;;;2.70;2.30;;;;;;;;;;5054127;28;20684;-76
2022/09/02 05:00:58;;;;;;;3.43;3.13;;;;;;;;;;5052633;28;20186;-76
2022/09/02 05:03:26;;;;;;;3.67;3.03;;;;;;;;;;5063994;28;20205;-76
2022/09/02 05:05:58;;;;;;;3.97;2.77;;;;;;;;;;5046330;28;20634;-76
2022/09/02 05:08:25;;;;;;;4.03;3.00;;;;;;;;;;5046831;28;20561;-75
2022/09/02 05:10:52;;;;;;;3.00;2.70;;;;;;;;;;5033919;28;20185;-75
2022/09/02 05:13:18;;;;;;;3.47;3.13;;;;;;;;;;5052133;28;20258;-76
2022/09/02 05:15:45;;;;;;;4.53;3.07;;;;;;;;;;5063088;28;20178;-76
2022/09/02 05:18:12;;;;;;;3.53;3.20;;;;;;;;;;5049613;28;20184;-73
2022/09/02 05:20:40;;;;;;;3.90;2.80;;;;;;;;;;5049193;28;20177;-72
2022/09/02 05:23:07;;;;;;;3.00;2.63;;;;;;;;;;5048791;28;20211;-73
2022/09/02 05:25:33;;;;;;;4.27;3.00;;;;;;;;;;5063679;28;20186;-71
2022/09/02 05:28:00;;;;;;;4.23;3.10;;;;;;;;;;5063313;28;20224;-71
2022/09/02 05:30:26;;;;;;;3.33;3.03;;;;;;;;;;5047774;28;20669;-72
2022/09/02 05:32:52;;;;;;;3.33;2.97;;;;;;;;;;5033283;28;20181;-72
2022/09/02 05:35:20;;;;;;;3.57;3.07;;;;;;;;;;5042832;28;20570;-72
2022/09/02 05:37:46;;;;;;;3.33;2.87;;;;;;;;;;5063199;28;20200;-72
2022/09/02 05:40:14;;;;;;;2.97;2.73;;;;;;;;;;5038462;28;20703;-73
2022/09/02 05:42:40;;;;;;;4.83;2.83;;;;;;;;;;5049699;28;20696;-71
2022/09/02 05:45:07;;;;;;;2.90;2.60;;;;;;;;;;5047430;28;20645;-73
2022/09/02 05:47:35;;;;;;;3.30;2.67;;;;;;;;;;5044979;28;20276;-73
2022/09/02 05:50:01;;;;;;;3.10;2.80;;;;;;;;;;5046306;28;20664;-73
2022/09/02 05:52:28;;;;;;;3.00;2.70;;;;;;;;;;5045617;28;20188;-73
2022/09/02 05:54:55;;;;;;;2.50;2.30;;;;;;;;;;5045486;28;20201;-73
2022/09/02 05:57:22;;;;;;;4.70;2.73;;;;;;;;;;5043280;28;20265;-73
2022/09/02 06:00:06;;;;;;;2.63;2.30;;;;;;;;;;5051647;28;20337;-73
2022/09/02 06:02:41;;;;;;;3.67;2.50;;;;;;;;;;5065786;28;20184;-73
2022/09/02 06:05:11;;;;;;;3.33;2.20;;;;;;;;;;5052194;28;20269;-73
2022/09/02 06:07:41;;;;;;;3.30;2.10;;;;;;;;;;5046409;28;20274;-73
2022/09/02 06:10:08;;;;;;;3.50;2.47;;;;;;;;;;5047512;28;20177;-73
2022/09/02 06:12:35;;;;;;;2.60;2.40;;;;;;;;;;5047436;28;20181;-73
2022/09/02 06:15:02;;;;;;;3.30;2.10;;;;;;;;;;5050228;28;20288;-76
2022/09/02 06:17:29;;;;;;;2.50;2.30;;;;;;;;;;5069990;28;20742;-73
2022/09/02 06:19:56;;;;;;;7.60;2.67;;;;;;;;;;5050673;28;20753;-71
2022/09/02 06:22:25;;;;;;;2.50;2.30;;;;;;;;;;5045039;28;20190;-72
2022/09/02 06:24:52;;;;;;;2.67;2.10;;;;;;;;;;5048425;28;20204;-71
2022/09/02 06:27:23;;;;;;;4.50;2.50;;;;;;;;;;5048617;28;20232;-71
2022/09/02 06:29:52;;;;;;;3.90;2.37;;;;;;;;;;5048000;28;20189;-71
2022/09/02 06:32:20;;;;;;;6.10;2.30;;;;;;;;;;5045494;28;20729;-71
2022/09/02 06:34:49;;;;;;;3.17;2.43;;;;;;;;;;5047114;28;20197;-71
2022/09/02 06:37:15;;;;;;;2.70;2.20;;;;;;;;;;5052659;28;20327;-71
2022/09/02 06:39:43;;;;;;;3.80;2.37;;;;;;;;;;5044120;28;20233;-72
2022/09/02 06:42:13;;;;;;;3.87;2.00;;;;;;;;;;5046083;28;20200;-71
2022/09/02 06:44:47;;;;;;;2.53;2.33;;;;;;;;;;5046200;28;20694;-72
2022/09/02 06:47:13;;;;;;;2.10;1.90;;;;;;;;;;5046494;28;20712;-71
2022/09/02 06:49:39;;;;;;;2.33;2.00;;;;;;;;;;5044145;28;20523;-71
2022/09/02 06:52:06;;;;;;;3.93;2.00;;;;;;;;;;5023557;28;20645;-72
2022/09/02 06:54:35;;;;;;;3.20;1.87;;;;;;;;;;5044715;28;20221;-72
2022/09/02 06:57:10;;;;;;;2.93;1.80;;;;;;;;;;5043403;28;20184;-71
2022/09/02 06:59:37;;;;;;;2.40;2.20;;;;;;;;;;5047648;28;20661;-71
2022/09/02 07:02:04;;;;;;;2.07;1.77;;;;;;;;;;5047689;28;20786;-71
2022/09/02 07:07:19;;;;;;;2.20;2.00;;;;;;;;;;5042322;28;20205;-72
2022/09/02 07:10:01;;;;;;;2.20;1.90;;;;;;;;;;5047563;28;20189;-72
2022/09/02 07:12:27;;;;;;;3.20;2.00;;;;;;;;;;5069117;28;20220;-73
2022/09/02 07:15:04;;;;;;;3.10;2.00;;;;;;;;;;5052421;28;20269;-72
2022/09/02 07:17:34;;;;;;;2.20;2.00;;;;;;;;;;5040651;28;20209;-72
2022/09/02 07:20:05;;;;;;;1.97;1.77;;;;;;;;;;5045761;28;20817;-73
2022/09/02 07:22:37;;;;;;;2.60;1.90;;;;;;;;;;5024965;28;20280;-72
2022/09/02 07:25:04;;;;;;;2.57;1.90;;;;;;;;;;5046231;28;20213;-72
2022/09/02 07:27:31;;;;;;;2.03;1.80;;;;;;;;;;5052247;28;20228;-72
2022/09/02 07:29:58;;;;;;;1.80;1.70;;;;;;;;;;5043760;28;20177;-72
2022/09/02 07:32:26;;;;;;;2.97;2.10;;;;;;;;;;5041159;28;20177;-72
2022/09/02 07:34:53;;;;;;;3.00;2.33;;;;;;;;;;5050346;28;20216;-73
2022/09/02 07:37:19;;;;;;;4.53;1.93;;;;;;;;;;5054127;28;20184;-73
2022/09/02 07:39:47;;;;;;;2.90;2.03;;;;;;;;;;5032563;28;20193;-72
2022/09/02 07:42:15;;;;;;;2.20;1.90;;;;;;;;;;5044011;28;20189;-74
2022/09/02 07:44:42;;;;;;;2.33;2.13;;;;;;;;;;5048684;28;20213;-74
2022/09/02 07:47:09;;;;;;;2.20;2.00;;;;;;;;;;5050304;28;20210;-73
2022/09/02 07:49:38;;;;;;;2.10;1.90;;;;;;;;;;5048363;28;20181;-74
2022/09/02 07:52:04;;;;;;;2.27;1.97;;;;;;;;;;5041950;28;20202;-74
2022/09/02 07:54:31;;;;;;;3.07;1.93;;;;;;;;;;5047967;28;20206;-74
2022/09/02 07:56:59;;;;;;;2.07;1.90;;;;;;;;;;5043100;28;20254;-73
2022/09/02 07:59:26;;;;;;;2.90;2.00;;;;;;;;;;5037869;28;20279;-72
2022/09/02 08:01:55;;;;;;;3.07;1.90;;;;;;;;;;5046713;28;20560;-72
2022/09/02 08:04:23;;;;;;;3.90;2.07;;;;;;;;;;5040043;28;20739;-73
2022/09/02 08:06:51;;;;;;;2.20;2.00;;;;;;;;;;5043284;28;20231;-72
2022/09/02 08:09:18;;;;;;;1.97;1.80;;;;;;;;;;5063154;28;20640;-73
2022/09/02 08:11:46;;;;;;;2.30;2.00;;;;;;;;;;5055848;28;20852;-72
2022/09/02 08:14:16;;;;;;;2.03;1.83;;;;;;;;;;5058364;28;20231;-72
2022/09/02 08:16:43;;;;;;;1.87;1.77;;;;;;;;;;5065767;28;20909;-72
2022/09/02 08:19:10;;;;;;;2.03;1.70;;;;;;;;;;5063688;28;20182;-73
2022/09/02 08:21:36;;;;;;;2.90;1.83;;;;;;;;;;5045971;28;20192;-73
2022/09/02 08:24:02;;;;;;;5.10;3.33;;;;;;;;;;5059994;28;20573;-73
2022/09/02 08:26:29;;;;;;;2.63;1.80;;;;;;;;;;5055672;28;20712;-73
2022/09/02 08:28:55;;;;;;;2.17;1.87;;;;;;;;;;5056771;28;20729;-72
2022/09/02 08:31:22;;;;;;;2.17;1.97;;;;;;;;;;5039118;28;20204;-72
2022/09/02 08:33:48;;;;;;;2.00;1.60;;;;;;;;;;5045102;28;20280;-72
2022/09/02 08:36:14;;;;;;;2.00;1.60;;;;;;;;;;5059046;28;20189;-72
2022/09/02 08:38:41;;;;;;;2.20;1.73;;;;;;;;;;5056650;28;20554;-73
2022/09/02 08:41:12;;;;;;;1.93;1.70;;;;;;;;;;5056854;28;20185;-73
2022/09/02 08:43:41;;;;;;;2.20;1.70;;;;;;;;;;5054729;28;20408;-73
2022/09/02 08:46:10;;;;;;;2.33;1.53;;;;;;;;;;5056320;28;20272;-74
2022/09/02 08:48:43;;;;;;;1.67;1.57;;;;;;;;;;5059918;28;20182;-73
2022/09/02 08:51:32;;;;;;;1.80;1.70;;;;;;;;;;5061921;28;20276;-72
2022/09/02 08:54:04;;;;;;;1.60;1.50;;;;;;;;;;5034278;28;20205;-73
2022/09/02 08:56:30;;;;;;;2.07;1.60;;;;;;;;;;5064470;28;20260;-73
2022/09/02 08:58:56;;;;;;;1.50;1.40;;;;;;;;;;5064693;28;20189;-72
2022/09/02 09:01:23;;;;;;;1.73;1.60;;;;;;;;;;5066323;28;20189;-73
2022/09/02 09:04:09;;;;;;;1.80;1.67;;;;;;;;;;5058646;28;20707;-72
2022/09/02 09:06:44;;;;;;;3.43;1.80;;;;;;;;;;5060937;28;20831;-72
2022/09/02 09:09:29;;;;;;;2.13;1.60;;;;;;;;;;5059259;28;20224;-72
2022/09/02 09:12:10;;;;;;;1.70;1.60;;;;;;;;;;5061127;28;20207;-72
2022/09/02 09:14:43;;;;;;;1.60;1.50;;;;;;;;;;5059343;28;20220;-72
2022/09/02 09:17:16;;;;;;;1.70;1.60;;;;;;;;;;5046217;28;20221;-72
2022/09/02 09:19:43;;;;;;;1.40;1.30;;;;;;;;;;5060872;28;20184;-72
2022/09/02 09:22:12;;;;;;;1.53;1.40;;;;;;;;;;5056814;28;20532;-72
2022/09/02 09:24:39;;;;;;;1.70;1.60;;;;;;;;;;5056598;28;20707;-72
2022/09/02 09:27:09;;;;;;;1.70;1.40;;;;;;;;;;5060102;28;20746;-73
2022/09/02 09:29:35;;;;;;;2.07;1.50;;;;;;;;;;5064085;28;20393;-72
2022/09/02 09:32:02;;;;;;;1.70;1.30;;;;;;;;;;5061628;28;20262;-72
2022/09/02 09:34:47;;;;;;;4.40;1.50;;;;;;;;;;5066034;28;20193;-72
2022/09/02 09:37:26;;;;;;;1.67;1.50;;;;;;;;;;5055850;28;20266;-72
2022/09/02 09:39:53;;;;;;;2.77;1.50;;;;;;;;;;5054339;28;20599;-72
2022/09/02 09:42:29;;;;;;;3.23;1.53;;;;;;;;;;5059804;28;20181;-72
2022/09/02 09:44:55;;;;;;;1.70;1.60;;;;;;;;;;5059672;28;20251;-72
2022/09/02 09:47:25;;;;;;;1.83;1.40;;;;;;;;;;5059915;28;20774;-72
2022/09/02 09:49:53;;;;;;;4.23;1.70;;;;;;;;;;5059550;28;20181;-72
2022/09/02 09:52:26;;;;;;;1.60;1.50;;;;;;;;;;5056953;28;20529;-72
2022/09/02 09:55:05;;;;;;;1.97;1.50;;;;;;;;;;5057260;28;20205;-72
2022/09/02 09:57:31;;;;;;;1.63;1.30;;;;;;;;;;5054826;28;20207;-73
2022/09/02 10:00:00;;;;;;;2.90;1.50;;;;;;;;;;5051221;28;20216;-73
2022/09/02 10:02:27;;;;;;;1.40;1.30;;;;;;;;;;5057694;28;20180;-73
2022/09/02 10:04:55;;;;;;;1.70;1.37;;;;;;;;;;5050824;28;20280;-73
2022/09/02 10:07:35;;;;;;;2.10;1.70;;;;;;;;;;5058220;28;20204;-72
2022/09/02 10:10:20;;;;;;;3.07;1.47;;;;;;;;;;5063917;28;20177;-72
2022/09/02 10:12:47;;;;;;;1.83;1.33;;;;;;;;;;5060992;28;20357;-72
2022/09/02 10:15:13;;;;;;;1.57;1.47;;;;;;;;;;5054732;28;20678;-72
2022/09/02 10:17:42;;;;;;;4.20;1.40;;;;;;;;;;5060104;28;20684;-72
2022/09/02 10:20:11;;;;;;;1.90;1.40;;;;;;;;;;5061482;28;20170;-71
2022/09/02 10:22:43;;;;;;;2.47;1.30;;;;;;;;;;5061443;28;20178;-73
2022/09/02 10:25:19;;;;;;;3.40;1.50;;;;;;;;;;5064725;28;20254;-72
2022/09/02 10:27:48;;;;;;;1.30;1.20;;;;;;;;;;5057414;28;20686;-72
2022/09/02 10:30:19;;;;;;;1.60;1.20;;;;;;;;;;5051707;28;20208;-71
2022/09/02 10:32:51;;;;;;;1.53;1.43;;;;;;;;;;5056488;28;20698;-71
2022/09/02 10:35:29;;;;;;;2.10;1.33;;;;;;;;;;5057165;28;20201;-71
2022/09/02 10:37:55;;;;;;;2.57;1.37;;;;;;;;;;5053931;28;20285;-72
2022/09/02 10:40:36;;;;;;;3.57;1.40;;;;;;;;;;5057140;28;20593;-73
2022/09/02 10:43:10;;;;;;;3.93;1.43;;;;;;;;;;5051680;28;20176;-71
2022/09/02 10:45:45;;;;;;;1.50;1.30;;;;;;;;;;5054754;28;20189;-74
2022/09/02 10:48:23;;;;;;;1.23;1.10;;;;;;;;;;5063027;28;20227;-71
2022/09/02 10:50:53;;;;;;;2.00;1.30;;;;;;;;;;5057372;28;20177;-72
2022/09/02 10:53:19;;;;;;;2.87;1.47;;;;;;;;;;5058582;28;20474;-72
2022/09/02 10:55:45;;;;;;;1.83;1.63;;;;;;;;;;5065692;28;20249;-72
2022/09/02 10:58:18;;;;;;;1.57;1.37;;;;;;;;;;5066473;28;20256;-72
2022/09/02 11:00:49;;;;;;;1.50;1.37;;;;;;;;;;5062634;28;20192;-72
2022/09/02 11:03:34;;;;;;;5.70;1.40;;;;;;;;;;5049789;28;20189;-71
2022/09/02 11:06:09;;;;;;;1.53;1.20;;;;;;;;;;5064723;28;20276;-71
2022/09/02 11:08:38;;;;;;;1.40;1.30;;;;;;;;;;5060393;28;20181;-72
2022/09/02 11:11:13;;;;;;;1.40;1.20;;;;;;;;;;5060408;28;20365;-72
2022/09/02 11:13:54;;;;;;;2.87;1.30;;;;;;;;;;5074008;28;20253;-72
2022/09/02 11:16:35;;;;;;;1.77;1.40;;;;;;;;;;5060727;28;20219;-72
2022/09/02 11:19:07;;;;;;;1.97;1.30;;;;;;;;;;5061397;28;20188;-72
2022/09/02 11:21:51;;;;;;;1.60;1.23;;;;;;;;;;5054282;28;20235;-72
2022/09/02 11:24:27;;;;;;;3.10;1.37;;;;;;;;;;5062380;28;20660;-72
2022/09/02 11:26:53;;;;;;;3.17;1.30;;;;;;;;;;5056884;28;20210;-72
2022/09/02 11:29:38;;;;;;;1.70;1.30;;;;;;;;;;5071501;28;20637;-72
2022/09/02 11:32:16;;;;;;;3.37;1.40;;;;;;;;;;5054896;28;20178;-76
2022/09/02 11:34:45;;;;;;;2.10;1.13;;;;;;;;;;5056550;28;20218;-72
2022/09/02 11:37:14;;;;;;;2.27;1.20;;;;;;;;;;5058685;28;20210;-71
2022/09/02 11:39:40;;;;;;;2.13;1.20;;;;;;;;;;5057314;28;20172;-73
2022/09/02 11:42:19;;;;;;;2.73;1.20;;;;;;;;;;5029230;28;20752;-72
2022/09/02 11:44:55;;;;;;;1.30;1.20;;;;;;;;;;5068563;28;20205;-72
2022/09/02 11:47:35;;;;;;;2.63;1.17;;;;;;;;;;5059778;28;20222;-72
2022/09/02 11:50:20;;;;;;;1.37;1.20;;;;;;;;;;5048558;28;20295;-72
2022/09/02 11:52:50;;;;;;;2.50;1.20;;;;;;;;;;5059322;28;20561;-72
2022/09/02 11:55:21;;;;;;;2.70;1.20;;;;;;;;;;5061324;28;20284;-72
2022/09/02 11:57:52;;;;;;;1.37;1.27;;;;;;;;;;5064556;28;20701;-72
2022/09/02 12:00:28;;;;;;;1.93;1.30;;;;;;;;;;5068787;28;20223;-72
2022/09/02 12:02:59;;;;;;;1.30;1.20;;;;;;;;;;5065333;28;20220;-72
2022/09/02 12:05:28;;;;;;;1.80;1.20;;;;;;;;;;5056263;28;20185;-75
2022/09/02 12:08:05;;;;;;;1.37;1.20;;;;;;;;;;5057686;28;20264;-72
2022/09/02 12:10:44;;;;;;;1.73;1.20;;;;;;;;;;5076318;28;20205;-71
2022/09/02 12:13:11;;;;;;;1.37;1.23;;;;;;;;;;5063276;28;20178;-71
2022/09/02 12:15:39;;;;;;;2.17;1.23;;;;;;;;;;5075391;28;20183;-71
2022/09/02 12:18:10;;;;;;;1.67;1.20;;;;;;;;;;5069763;28;20194;-71
2022/09/02 12:20:36;;;;;;;1.43;1.10;;;;;;;;;;5055161;28;20209;-71
2022/09/02 12:23:02;;;;;;;1.77;1.20;;;;;;;;;;5065160;28;20181;-72
2022/09/02 12:25:28;;;;;;;2.67;1.20;;;;;;;;;;5062646;28;20183;-71
2022/09/02 12:28:13;;;;;;;1.90;1.30;;;;;;;;;;5062317;28;20585;-72
2022/09/02 12:30:55;;;;;;;2.13;1.30;;;;;;;;;;5038043;28;20199;-72
2022/09/02 12:33:34;;;;;;;1.87;1.30;;;;;;;;;;5056053;28;20205;-73
2022/09/02 12:36:03;;;;;;;2.97;1.10;;;;;;;;;;5059126;28;20181;-73
2022/09/02 12:38:35;;;;;;;1.30;1.20;;;;;;;;;;5052668;28;20204;-73
2022/09/02 12:41:04;;;;;;;1.40;1.10;;;;;;;;;;5074118;28;20178;-73
2022/09/02 12:43:49;;;;;;;1.93;1.37;;;;;;;;;;5045452;28;20215;-73
2022/09/02 12:46:37;;;;;;;2.87;1.30;;;;;;;;;;5060327;28;20523;-73
2022/09/02 12:49:23;;;;;;;2.57;1.30;;;;;;;;;;5060108;28;20698;-74
2022/09/02 12:52:25;;;;;;;1.30;1.20;;;;;;;;;;5053702;28;20212;-74
2022/09/02 12:54:51;;;;;;;1.20;1.10;;;;;;;;;;5006227;28;20211;-74
2022/09/02 12:57:18;;;;;;;2.13;1.10;;;;;;;;;;5048923;28;20189;-74
2022/09/02 12:59:45;;;;;;;2.50;1.07;;;;;;;;;;5061985;28;20535;-74
2022/09/02 13:02:30;;;;;;;1.67;1.13;;;;;;;;;;5062231;28;20181;-74
2022/09/02 13:05:05;;;;;;;1.47;1.10;;;;;;;;;;5047609;28;20229;-74
2022/09/02 13:07:50;;;;;;;2.40;1.23;;;;;;;;;;5051475;28;20285;-74
2022/09/02 13:10:42;;;;;;;1.87;1.27;;;;;;;;;;5067020;28;20227;-74
2022/09/02 13:13:27;;;;;;;1.73;1.20;;;;;;;;;;5035379;28;20383;-74
2022/09/02 13:16:07;;;;;;;1.77;1.10;;;;;;;;;;5058568;28;20188;-74
2022/09/02 13:18:40;;;;;;;1.73;1.20;;;;;;;;;;5059285;28;20707;-74
2022/09/02 13:21:25;;;;;;;3.70;1.20;;;;;;;;;;5054384;28;20175;-74
2022/09/02 13:24:09;;;;;;;1.33;1.07;;;;;;;;;;5058905;28;20780;-74
2022/09/02 13:26:48;;;;;;;1.30;1.20;;;;;;;;;;5057024;28;20243;-74
2022/09/02 13:29:17;;;;;;;3.73;1.20;;;;;;;;;;5062967;28;20211;-74
2022/09/02 13:31:59;;;;;;;3.27;1.13;;;;;;;;;;5061037;28;20718;-74
2022/09/02 13:34:25;;;;;;;3.67;1.30;;;;;;;;;;5060446;28;20244;-74
2022/09/02 13:36:51;;;;;;;3.40;1.10;;;;;;;;;;5057932;28;20180;-74
2022/09/02 13:39:25;;;;;;;1.73;1.20;;;;;;;;;;5050833;28;20184;-74
2022/09/02 13:41:51;;;;;;;1.57;1.33;;;;;;;;;;5058935;28;20218;-74
2022/09/02 13:44:28;;;;;;;1.60;1.30;;;;;;;;;;5061159;28;20222;-74
2022/09/02 13:47:23;;;;;;;1.30;1.20;;;;;;;;;;5063420;28;20211;-74
2022/09/02 13:49:52;;;;;;;1.27;1.17;;;;;;;;;;5054564;28;20288;-74
2022/09/02 13:52:20;;;;;;;1.47;1.00;;;;;;;;;;5061502;28;20615;-74
2022/09/02 13:54:54;;;;;;;1.03;0.90;;;;;;;;;;5053806;28;20608;-74
2022/09/02 13:57:23;;;;;;;1.00;1.00;;;;;;;;;;5060360;28;20197;-74
2022/09/02 13:59:50;;;;;;;1.50;1.00;;;;;;;;;;5066941;28;20177;-74
2022/09/02 14:02:18;;;;;;;1.00;0.97;;;;;;;;;;5065860;28;20697;-74
2022/09/02 14:04:44;;;;;;;1.90;1.00;;;;;;;;;;5076416;28;20343;-74
2022/09/02 14:07:12;;;;;;;2.30;1.00;;;;;;;;;;5055647;28;20264;-74
2022/09/02 14:09:39;;;;;;;1.87;1.03;;;;;;;;;;5064004;28;20648;-74
2022/09/02 14:12:06;;;;;;;3.30;1.00;;;;;;;;;;5059175;28;20186;-74
2022/09/02 14:14:32;;;;;;;1.10;1.00;;;;;;;;;;5044593;28;20239;-74
2022/09/02 14:17:17;;;;;;;1.73;1.10;;;;;;;;;;5057052;28;20775;-74
2022/09/02 14:19:43;;;;;;;1.10;1.00;;;;;;;;;;5075168;28;20772;-74
2022/09/02 14:22:20;;;;;;;1.13;1.03;;;;;;;;;;5056345;28;20179;-73
2022/09/02 14:24:47;;;;;;;1.67;1.20;;;;;;;;;;5061975;28;20242;-73
2022/09/02 14:27:16;;;;;;;1.57;1.10;;;;;;;;;;5061492;28;20247;-75
2022/09/02 14:29:44;;;;;;;1.20;1.10;;;;;;;;;;5060133;28;20188;-73
2022/09/02 14:32:12;;;;;;;1.20;1.00;;;;;;;;;;5055879;28;20185;-74
2022/09/02 14:34:40;;;;;;;1.93;1.10;;;;;;;;;;5065900;28;20200;-74
2022/09/02 14:37:18;;;;;;;1.67;1.00;;;;;;;;;;5060161;28;20208;-74
2022/09/02 14:40:11;;;;;;;1.23;1.00;;;;;;;;;;5064970;28;20412;-74
2022/09/02 14:42:51;;;;;;;1.30;1.07;;;;;;;;;;5062779;28;20246;-74
2022/09/02 14:45:25;;;;;;;1.47;1.13;;;;;;;;;;5065227;28;20211;-74
2022/09/02 14:47:51;;;;;;;1.57;1.17;;;;;;;;;;5062032;28;20195;-74
2022/09/02 14:50:19;;;;;;;1.47;1.10;;;;;;;;;;5046095;28;20190;-74
2022/09/02 14:52:46;;;;;;;1.80;1.13;;;;;;;;;;5056994;28;20525;-74
2022/09/02 14:55:36;;;;;;;1.47;1.00;;;;;;;;;;5059047;28;20573;-74
2022/09/02 14:58:03;;;;;;;1.43;1.10;;;;;;;;;;5063433;28;20178;-74
2022/09/02 15:00:31;;;;;;;1.40;1.10;;;;;;;;;;5062278;28;20184;-74
2022/09/02 15:02:59;;;;;;;3.73;1.20;;;;;;;;;;5062174;28;20364;-74
2022/09/02 15:05:25;;;;;;;2.93;0.90;;;;;;;;;;5062528;28;20187;-74